createdAt,value
2017-06-02T00:00:35.159Z,20.70
2017-06-02T00:03:02.811Z,20.64
2017-06-02T00:05:30.391Z,20.63
2017-06-02T00:07:57.983Z,20.65
2017-06-02T00:10:25.568Z,20.84
2017-06-02T00:12:53.198Z,20.96
2017-06-02T00:15:20.727Z,21.01
2017-06-02T00:17:48.363Z,20.93
2017-06-02T00:20:15.972Z,21.17
2017-06-02T00:22:43.545Z,21.15
2017-06-02T00:25:11.028Z,21.16
2017-06-02T00:27:38.600Z,21.32
2017-06-02T00:30:06.109Z,21.09
2017-06-02T00:32:34.006Z,20.81
2017-06-02T00:35:01.563Z,20.68
2017-06-02T00:37:29.133Z,20.71
2017-06-02T00:39:56.740Z,20.69
2017-06-02T00:42:24.296Z,20.96
2017-06-02T00:44:51.871Z,20.80
2017-06-02T00:47:19.435Z,20.77
2017-06-02T00:49:47.064Z,20.72
2017-06-02T00:52:14.620Z,20.73
2017-06-02T00:54:42.266Z,20.63
2017-06-02T00:57:09.817Z,20.78
2017-06-02T00:59:37.399Z,20.90
2017-06-02T01:02:04.923Z,20.76
2017-06-02T01:04:32.487Z,20.83
2017-06-02T01:07:00.013Z,20.60
2017-06-02T01:09:27.628Z,20.59
2017-06-02T01:11:55.153Z,20.67
2017-06-02T01:14:22.728Z,20.53
2017-06-02T01:16:50.263Z,20.36
2017-06-02T01:19:17.829Z,20.34
2017-06-02T01:21:45.371Z,20.61
2017-06-02T01:24:13.029Z,20.76
2017-06-02T01:26:40.552Z,21.05
2017-06-02T01:29:08.186Z,21.13
2017-06-02T01:31:35.751Z,21.01
2017-06-02T01:34:03.270Z,21.00
2017-06-02T01:36:30.831Z,20.52
2017-06-02T01:38:58.363Z,20.24
2017-06-02T01:41:25.935Z,20.33
2017-06-02T01:43:53.452Z,20.26
2017-06-02T01:46:21.023Z,20.17
2017-06-02T01:48:48.555Z,20.19
2017-06-02T01:51:16.111Z,19.96
2017-06-02T01:53:43.640Z,20.25
2017-06-02T01:56:11.200Z,20.54
2017-06-02T01:58:38.726Z,20.69
2017-06-02T02:01:06.291Z,20.34
2017-06-02T02:03:33.826Z,19.99
2017-06-02T02:06:01.392Z,19.96
2017-06-02T02:08:28.916Z,20.05
2017-06-02T02:10:56.540Z,20.20
2017-06-02T02:13:24.100Z,20.29
2017-06-02T02:15:51.671Z,20.24
2017-06-02T02:18:19.318Z,20.30
2017-06-02T02:20:46.883Z,20.22
2017-06-02T02:23:14.487Z,20.43
2017-06-02T02:25:42.051Z,20.20
2017-06-02T02:28:09.691Z,20.18
2017-06-02T02:30:37.255Z,20.18
2017-06-02T02:33:04.820Z,20.14
2017-06-02T02:35:32.376Z,20.15
2017-06-02T02:37:59.935Z,20.24
2017-06-02T02:40:27.500Z,20.18
2017-06-02T02:42:55.070Z,20.09
2017-06-02T02:45:22.603Z,20.04
2017-06-02T02:47:50.168Z,20.07
2017-06-02T02:50:17.741Z,20.24
2017-06-02T02:52:45.314Z,20.03
2017-06-02T02:55:12.844Z,19.98
2017-06-02T02:57:40.512Z,19.89
2017-06-02T03:00:08.122Z,19.93
2017-06-02T03:02:35.835Z,20.07
2017-06-02T03:05:03.384Z,20.05
2017-06-02T03:07:30.920Z,19.94
2017-06-02T03:09:58.523Z,20.00
2017-06-02T03:12:26.116Z,19.94
2017-06-02T03:14:53.696Z,19.92
2017-06-02T03:17:21.302Z,20.01
2017-06-02T03:19:48.844Z,20.12
2017-06-02T03:22:16.397Z,20.38
2017-06-02T03:24:43.963Z,20.58
2017-06-02T03:27:11.494Z,20.34
2017-06-02T03:29:39.116Z,20.34
2017-06-02T03:32:06.644Z,20.12
2017-06-02T03:34:34.211Z,20.02
2017-06-02T03:37:01.751Z,20.04
2017-06-02T03:39:29.312Z,20.02
2017-06-02T03:41:56.850Z,20.18
2017-06-02T03:44:24.414Z,20.29
2017-06-02T03:46:51.935Z,20.41
2017-06-02T03:49:19.491Z,20.45
2017-06-02T03:51:47.011Z,20.64
2017-06-02T03:54:15.004Z,20.76
2017-06-02T03:56:42.531Z,20.76
2017-06-02T03:59:10.107Z,20.50
2017-06-02T04:01:37.735Z,20.14
2017-06-02T04:04:05.306Z,20.05
2017-06-02T04:06:32.879Z,20.12
2017-06-02T04:09:00.424Z,19.97
2017-06-02T04:11:27.989Z,19.86
2017-06-02T04:13:55.537Z,19.80
2017-06-02T04:16:23.108Z,19.77
2017-06-02T04:18:50.651Z,19.75
2017-06-02T04:21:18.220Z,19.80
2017-06-02T04:23:45.744Z,19.75
2017-06-02T04:26:13.384Z,19.73
2017-06-02T04:28:40.958Z,19.87
2017-06-02T04:31:08.520Z,19.80
2017-06-02T04:33:36.060Z,19.77
2017-06-02T04:36:03.615Z,19.90
2017-06-02T04:38:31.176Z,20.07
2017-06-02T04:40:58.727Z,20.22
2017-06-02T04:43:26.265Z,20.43
2017-06-02T04:45:53.839Z,20.44
2017-06-02T04:48:21.413Z,20.45
2017-06-02T04:50:49.895Z,20.36
2017-06-02T04:53:17.791Z,20.42
2017-06-02T04:55:45.399Z,20.47
2017-06-02T04:58:13.001Z,20.52
2017-06-02T05:00:40.544Z,20.42
2017-06-02T05:03:08.102Z,20.39
2017-06-02T05:05:35.679Z,20.22
2017-06-02T05:08:03.244Z,20.30
2017-06-02T05:10:30.775Z,20.46
2017-06-02T05:12:58.362Z,20.50
2017-06-02T05:15:25.939Z,20.55
2017-06-02T05:17:53.538Z,20.58
2017-06-02T05:20:21.081Z,20.57
2017-06-02T05:22:48.659Z,20.62
2017-06-02T05:25:16.198Z,20.75
2017-06-02T05:27:43.841Z,20.84
2017-06-02T05:30:11.383Z,20.85
2017-06-02T05:32:38.982Z,20.87
2017-06-02T05:35:06.511Z,20.93
2017-06-02T05:37:34.027Z,20.99
2017-06-02T05:40:01.606Z,21.01
2017-06-02T05:42:29.127Z,21.04
2017-06-02T05:44:56.719Z,21.05
2017-06-02T05:47:25.407Z,21.07
2017-06-02T05:49:53.005Z,21.11
2017-06-02T05:52:20.544Z,21.18
2017-06-02T05:54:48.116Z,21.23
2017-06-02T05:57:15.635Z,21.23
2017-06-02T05:59:43.288Z,21.24
2017-06-02T06:02:10.819Z,21.31
2017-06-02T06:04:38.467Z,21.32
2017-06-02T06:07:06.015Z,21.39
2017-06-02T06:09:33.603Z,21.47
2017-06-02T06:12:01.117Z,21.51
2017-06-02T06:14:28.765Z,21.56
2017-06-02T06:16:56.324Z,21.58
2017-06-02T06:19:23.899Z,21.69
2017-06-02T06:21:51.477Z,21.72
2017-06-02T06:24:19.412Z,21.73
2017-06-02T06:26:46.956Z,21.80
2017-06-02T06:29:14.494Z,21.89
2017-06-02T06:31:42.056Z,21.90
2017-06-02T06:34:09.603Z,21.89
2017-06-02T06:36:37.171Z,21.92
2017-06-02T06:39:04.676Z,21.98
2017-06-02T06:41:32.235Z,22.02
2017-06-02T06:43:59.801Z,22.03
2017-06-02T06:46:27.388Z,22.13
2017-06-02T06:48:54.948Z,22.09
2017-06-02T06:51:22.503Z,22.15
2017-06-02T06:53:50.023Z,22.13
2017-06-02T06:56:17.743Z,22.13
2017-06-02T06:58:45.290Z,22.13
2017-06-02T07:01:12.813Z,22.14
2017-06-02T07:03:40.383Z,22.22
2017-06-02T07:06:07.912Z,22.25
2017-06-02T07:08:35.483Z,22.26
2017-06-02T07:11:03.016Z,22.32
2017-06-02T07:13:30.841Z,22.36
2017-06-02T07:15:58.468Z,22.39
2017-06-02T07:18:26.039Z,22.44
2017-06-02T07:20:53.612Z,22.49
2017-06-02T07:23:21.212Z,22.54
2017-06-02T07:25:48.784Z,22.51
2017-06-02T07:28:16.311Z,22.59
2017-06-02T07:30:43.988Z,22.59
2017-06-02T07:33:11.511Z,22.62
2017-06-02T07:35:39.056Z,22.70
2017-06-02T07:38:06.622Z,22.75
2017-06-02T07:40:34.143Z,22.74
2017-06-02T07:43:02.328Z,22.77
2017-06-02T07:45:30.879Z,22.80
2017-06-02T07:47:58.779Z,22.91
2017-06-02T07:50:26.788Z,22.90
2017-06-02T07:52:54.700Z,22.90
2017-06-02T07:55:22.426Z,23.08
2017-06-02T07:57:50.140Z,23.09
2017-06-02T08:00:17.775Z,23.17
2017-06-02T08:02:45.299Z,23.20
2017-06-02T08:05:12.966Z,23.26
2017-06-02T08:07:40.503Z,23.25
2017-06-02T08:10:08.042Z,23.43
2017-06-02T08:12:35.610Z,23.51
2017-06-02T08:15:03.162Z,23.45
2017-06-02T08:17:30.775Z,23.41
2017-06-02T08:19:58.356Z,23.39
2017-06-02T08:22:26.919Z,23.45
2017-06-02T08:24:54.726Z,23.55
2017-06-02T08:27:22.480Z,23.53
2017-06-02T08:29:50.299Z,23.65
2017-06-02T08:32:17.831Z,23.68
2017-06-02T08:34:45.559Z,23.80
2017-06-02T08:37:13.167Z,23.88
2017-06-02T08:39:40.704Z,23.87
2017-06-02T08:42:08.288Z,24.05
2017-06-02T08:44:35.836Z,24.00
2017-06-02T08:47:03.416Z,23.95
2017-06-02T08:49:30.949Z,24.07
2017-06-02T08:51:58.695Z,24.02
2017-06-02T08:54:26.364Z,24.05
2017-06-02T08:56:54.113Z,24.07
2017-06-02T08:59:21.750Z,24.09
2017-06-02T09:01:49.343Z,24.11
2017-06-02T09:04:16.930Z,24.17
2017-06-02T09:06:44.523Z,24.25
2017-06-02T09:09:12.043Z,24.27
2017-06-02T09:12:15.234Z,24.37
2017-06-02T09:14:42.777Z,24.56
2017-06-02T09:17:10.459Z,24.67
2017-06-02T09:19:38.044Z,24.73
2017-06-02T09:22:05.574Z,24.75
2017-06-02T09:24:33.128Z,24.70
2017-06-02T09:27:00.721Z,24.76
2017-06-02T09:29:28.273Z,24.74
2017-06-02T09:31:55.872Z,24.75
2017-06-02T09:34:23.538Z,24.85
2017-06-02T09:36:51.057Z,24.94
2017-06-02T09:39:18.579Z,25.03
2017-06-02T09:41:46.135Z,25.07
2017-06-02T09:44:13.666Z,25.14
2017-06-02T09:46:41.428Z,25.21
2017-06-02T09:49:08.951Z,25.26
2017-06-02T09:51:36.612Z,25.43
2017-06-02T09:54:04.276Z,25.48
2017-06-02T09:56:31.783Z,25.50
2017-06-02T09:58:59.447Z,25.53
2017-06-02T10:01:26.974Z,25.56
2017-06-02T10:03:54.483Z,25.66
2017-06-02T10:06:22.039Z,25.69
2017-06-02T10:08:49.562Z,25.72
2017-06-02T10:11:17.264Z,25.77
2017-06-02T10:13:44.795Z,25.89
2017-06-02T10:16:12.330Z,26.06
2017-06-02T10:18:39.951Z,26.16
2017-06-02T10:21:07.446Z,26.12
2017-06-02T10:23:35.420Z,26.09
2017-06-02T10:26:02.946Z,26.32
2017-06-02T10:28:30.463Z,26.29
2017-06-02T10:30:58.036Z,26.33
2017-06-02T10:33:25.546Z,26.51
2017-06-02T10:35:53.096Z,26.55
2017-06-02T10:38:20.652Z,26.69
2017-06-02T10:40:48.312Z,26.91
2017-06-02T10:43:15.843Z,26.81
2017-06-02T10:45:43.355Z,26.81
2017-06-02T10:48:11.003Z,26.96
2017-06-02T10:50:38.537Z,27.26
2017-06-02T10:53:06.167Z,27.33
2017-06-02T10:55:33.702Z,27.39
2017-06-02T10:58:01.243Z,27.43
2017-06-02T11:00:28.795Z,27.44
2017-06-02T11:02:56.383Z,27.46
2017-06-02T11:05:24.122Z,27.63
2017-06-02T11:07:51.646Z,27.63
2017-06-02T11:10:19.304Z,27.72
2017-06-02T11:12:46.827Z,27.68
2017-06-02T11:15:14.355Z,27.59
2017-06-02T11:17:41.919Z,27.73
2017-06-02T11:20:09.440Z,27.94
2017-06-02T11:22:37.365Z,27.72
2017-06-02T11:25:04.926Z,27.80
2017-06-02T11:27:32.463Z,27.79
2017-06-02T11:30:00.047Z,27.84
2017-06-02T11:32:27.572Z,27.98
2017-06-02T11:34:55.184Z,28.27
2017-06-02T11:37:22.727Z,28.30
2017-06-02T11:39:50.421Z,28.23
2017-06-02T11:42:17.956Z,28.40
2017-06-02T11:44:45.511Z,28.46
2017-06-02T11:47:13.093Z,28.47
2017-06-02T11:49:40.745Z,28.45
2017-06-02T11:52:08.480Z,28.55
2017-06-02T11:54:36.021Z,28.55
2017-06-02T11:57:03.548Z,28.45
2017-06-02T11:59:31.156Z,28.39
2017-06-02T12:01:58.691Z,28.37
2017-06-02T12:04:26.567Z,28.47
2017-06-02T12:06:54.087Z,28.73
2017-06-02T12:09:21.625Z,28.80
2017-06-02T12:11:49.191Z,28.64
2017-06-02T12:14:16.715Z,28.68
2017-06-02T12:16:44.251Z,28.82
2017-06-02T12:19:11.802Z,28.98
2017-06-02T12:21:39.387Z,28.95
2017-06-02T12:24:06.924Z,29.24
2017-06-02T12:26:34.456Z,28.89
2017-06-02T12:29:02.012Z,28.83
2017-06-02T12:31:29.659Z,28.94
2017-06-02T12:33:57.237Z,29.13
2017-06-02T12:36:24.776Z,29.18
2017-06-02T12:38:52.298Z,29.45
2017-06-02T12:41:19.919Z,29.36
2017-06-02T12:43:47.447Z,29.05
2017-06-02T12:46:15.497Z,29.22
2017-06-02T12:48:43.088Z,29.57
2017-06-02T12:51:10.598Z,29.54
2017-06-02T12:53:38.159Z,29.33
2017-06-02T12:56:05.678Z,29.55
2017-06-02T12:58:33.263Z,29.46
2017-06-02T13:01:00.780Z,29.56
2017-06-02T13:03:28.292Z,29.68
2017-06-02T13:05:55.852Z,29.78
2017-06-02T13:08:23.509Z,30.03
2017-06-02T13:10:51.129Z,29.97
2017-06-02T13:13:18.646Z,29.76
2017-06-02T13:15:46.234Z,29.35
2017-06-02T13:18:13.791Z,29.73
2017-06-02T13:20:41.307Z,29.66
2017-06-02T13:23:08.851Z,29.81
2017-06-02T13:25:36.398Z,29.66
2017-06-02T13:28:03.967Z,29.95
2017-06-02T13:30:31.496Z,30.08
2017-06-02T13:32:59.011Z,29.99
2017-06-02T13:35:26.555Z,30.26
2017-06-02T13:37:54.080Z,30.59
2017-06-02T13:40:21.692Z,30.81
2017-06-02T13:42:49.363Z,30.99
2017-06-02T13:45:16.929Z,31.45
2017-06-02T13:47:44.486Z,30.78
2017-06-02T13:50:12.079Z,30.69
2017-06-02T13:52:39.686Z,31.02
2017-06-02T13:55:07.199Z,31.50
2017-06-02T13:57:34.761Z,31.12
2017-06-02T14:00:02.339Z,31.49
2017-06-02T14:02:29.934Z,31.67
2017-06-02T14:04:57.500Z,31.28
2017-06-02T14:07:25.019Z,31.00
2017-06-02T14:09:52.736Z,30.71
2017-06-02T14:12:20.339Z,31.10
2017-06-02T14:14:47.916Z,31.28
2017-06-02T14:17:15.449Z,31.43
2017-06-02T14:19:43.363Z,31.58
2017-06-02T14:22:10.883Z,31.36
2017-06-02T14:24:38.424Z,31.49
2017-06-02T14:27:06.004Z,30.95
2017-06-02T14:29:33.520Z,31.60
2017-06-02T14:32:01.097Z,31.75
2017-06-02T14:34:28.659Z,31.50
2017-06-02T14:36:57.007Z,31.18
2017-06-02T14:39:24.543Z,31.53
2017-06-02T14:41:52.080Z,32.12
2017-06-02T14:44:19.806Z,31.92
2017-06-02T14:46:47.319Z,31.78
2017-06-02T14:49:14.883Z,31.63
2017-06-02T14:51:42.439Z,31.86
2017-06-02T14:54:09.975Z,31.56
2017-06-02T14:56:37.517Z,31.27
2017-06-02T14:59:05.160Z,31.11
2017-06-02T15:01:32.684Z,31.37
2017-06-02T15:04:00.236Z,31.74
2017-06-02T15:06:27.807Z,31.89
2017-06-02T15:08:55.359Z,31.63
2017-06-02T15:11:22.894Z,31.89
2017-06-02T15:13:50.873Z,32.11
2017-06-02T15:16:18.427Z,31.86
2017-06-02T15:18:45.992Z,31.58
2017-06-02T15:21:13.567Z,31.29
2017-06-02T15:23:41.076Z,31.19
2017-06-02T15:26:08.640Z,31.13
2017-06-02T15:28:36.156Z,31.02
2017-06-02T15:31:03.813Z,31.24
2017-06-02T15:33:31.324Z,31.88
2017-06-02T15:35:58.899Z,31.88
2017-06-02T15:38:26.484Z,31.29
2017-06-02T15:40:54.030Z,31.32
2017-06-02T15:43:21.693Z,32.37
2017-06-02T15:45:49.259Z,32.40
2017-06-02T15:48:16.871Z,32.31
2017-06-02T15:50:44.417Z,32.67
2017-06-02T15:53:11.965Z,32.77
2017-06-02T15:55:39.483Z,33.01
2017-06-02T15:58:07.115Z,33.22
2017-06-02T16:00:34.631Z,32.32
2017-06-02T16:03:02.154Z,32.09
2017-06-02T16:05:29.700Z,32.52
2017-06-02T16:07:57.243Z,32.20
2017-06-02T16:10:24.856Z,31.26
2017-06-02T16:12:52.416Z,30.82
2017-06-02T16:15:20.024Z,30.29
2017-06-02T16:17:47.568Z,29.72
2017-06-02T16:20:15.148Z,29.65
2017-06-02T16:22:42.675Z,29.49
2017-06-02T16:25:11.204Z,29.24
2017-06-02T16:27:38.777Z,28.65
2017-06-02T16:30:06.300Z,28.26
2017-06-02T16:32:33.886Z,28.24
2017-06-02T16:35:01.496Z,27.99
2017-06-02T16:37:33.136Z,28.04
2017-06-02T16:40:00.921Z,28.07
2017-06-02T16:42:28.756Z,28.13
2017-06-02T16:44:56.510Z,28.20
2017-06-02T16:47:26.748Z,28.07
2017-06-02T16:49:54.658Z,27.94
2017-06-02T16:52:22.210Z,27.93
2017-06-02T16:54:49.859Z,27.84
2017-06-02T16:57:17.438Z,27.71
2017-06-02T16:59:45.139Z,27.57
2017-06-02T17:02:12.703Z,27.44
2017-06-02T17:04:40.223Z,27.32
2017-06-02T17:07:07.775Z,27.28
2017-06-02T17:09:35.306Z,27.22
2017-06-02T17:12:03.421Z,27.19
2017-06-02T17:14:30.967Z,27.21
2017-06-02T17:16:58.885Z,27.35
2017-06-02T17:19:26.419Z,27.33
2017-06-02T17:21:54.009Z,27.29
2017-06-02T17:24:21.646Z,27.20
2017-06-02T17:26:49.239Z,27.12
2017-06-02T17:29:16.854Z,27.15
2017-06-02T17:31:44.391Z,27.03
2017-06-02T17:34:11.987Z,26.99
2017-06-02T17:36:39.591Z,27.07
2017-06-02T17:39:07.115Z,27.02
2017-06-02T17:41:34.800Z,26.82
2017-06-02T17:44:02.309Z,26.83
2017-06-02T17:46:29.835Z,26.86
2017-06-02T17:48:57.482Z,26.69
2017-06-02T17:51:25.015Z,26.84
2017-06-02T17:53:52.600Z,26.80
2017-06-02T17:56:20.175Z,26.73
2017-06-02T17:58:47.870Z,26.86
2017-06-02T18:01:15.424Z,26.42
2017-06-02T18:03:43.661Z,26.69
2017-06-02T18:06:11.310Z,26.82
2017-06-02T18:08:38.931Z,26.94
2017-06-02T18:11:06.479Z,26.90
2017-06-02T18:13:34.000Z,26.74
2017-06-02T18:16:01.555Z,26.61
2017-06-02T18:18:29.065Z,26.61
2017-06-02T18:20:56.723Z,26.50
2017-06-02T18:23:24.298Z,26.42
2017-06-02T18:25:51.838Z,26.32
2017-06-02T18:28:19.789Z,26.08
2017-06-02T18:30:47.400Z,26.28
2017-06-02T18:33:14.951Z,26.22
2017-06-02T18:35:42.581Z,26.27
2017-06-02T18:38:10.104Z,26.23
2017-06-02T18:40:38.035Z,26.22
2017-06-02T18:43:05.571Z,26.13
2017-06-02T18:45:33.124Z,25.93
2017-06-02T18:48:00.665Z,26.10
2017-06-02T18:50:28.267Z,26.03
2017-06-02T18:52:55.939Z,26.02
2017-06-02T18:55:23.555Z,25.99
2017-06-02T18:57:51.126Z,26.03
2017-06-02T19:00:18.672Z,26.10
2017-06-02T19:02:46.249Z,26.11
2017-06-02T19:05:13.791Z,26.09
2017-06-02T19:07:41.407Z,26.05
2017-06-02T19:10:08.912Z,26.01
2017-06-02T19:12:36.473Z,26.00
2017-06-02T19:15:04.054Z,25.97
2017-06-02T19:17:31.601Z,25.93
2017-06-02T19:19:59.127Z,25.82
2017-06-02T19:22:26.680Z,25.91
2017-06-02T19:24:54.195Z,25.89
2017-06-02T19:27:25.531Z,25.87
2017-06-02T19:29:53.069Z,25.80
2017-06-02T19:32:20.635Z,25.63
2017-06-02T19:34:48.163Z,25.43
2017-06-02T19:37:15.734Z,25.33
2017-06-02T19:39:43.274Z,25.51
2017-06-02T19:42:10.809Z,25.33
2017-06-02T19:44:38.426Z,25.17
2017-06-02T19:47:05.955Z,25.02
2017-06-02T19:49:33.627Z,24.91
2017-06-02T19:52:01.166Z,24.89
2017-06-02T19:54:28.699Z,24.81
2017-06-02T19:56:56.248Z,24.81
2017-06-02T19:59:23.772Z,24.81
2017-06-02T20:01:51.735Z,24.76
2017-06-02T20:04:19.275Z,24.76
2017-06-02T20:06:46.908Z,24.72
2017-06-02T20:09:15.982Z,24.67
2017-06-02T20:11:43.643Z,24.58
2017-06-02T20:14:11.158Z,24.62
2017-06-02T20:16:38.687Z,24.53
2017-06-02T20:19:06.222Z,24.46
2017-06-02T20:21:33.747Z,24.58
2017-06-02T20:24:01.325Z,24.49
2017-06-02T20:26:28.836Z,24.39
2017-06-02T20:28:56.391Z,24.22
2017-06-02T20:31:24.097Z,24.11
2017-06-02T20:33:51.635Z,24.06
2017-06-02T20:36:19.184Z,24.19
2017-06-02T20:38:46.710Z,24.16
2017-06-02T20:41:14.328Z,24.12
2017-06-02T20:43:41.914Z,24.18
2017-06-02T20:46:09.475Z,24.16
2017-06-02T20:48:37.051Z,24.12
2017-06-02T20:51:04.781Z,24.07
2017-06-02T20:53:32.329Z,23.98
2017-06-02T20:55:59.907Z,24.04
2017-06-02T20:58:27.479Z,23.88
2017-06-02T21:00:55.051Z,23.97
2017-06-02T21:03:22.639Z,23.93
2017-06-02T21:05:50.178Z,23.85
2017-06-02T21:08:17.716Z,23.76
2017-06-02T21:10:45.250Z,23.65
2017-06-02T21:13:12.826Z,23.55
2017-06-02T21:15:40.460Z,23.51
2017-06-02T21:18:07.979Z,23.59
2017-06-02T21:20:35.600Z,23.54
2017-06-02T21:23:03.143Z,23.49
2017-06-02T21:25:30.775Z,23.41
2017-06-02T21:27:58.573Z,23.36
2017-06-02T21:30:26.103Z,23.42
2017-06-02T21:32:53.691Z,23.37
2017-06-02T21:35:21.528Z,23.41
2017-06-02T21:37:49.061Z,23.38
2017-06-02T21:40:16.735Z,23.39
2017-06-02T21:42:44.256Z,23.32
2017-06-02T21:45:11.786Z,23.27
2017-06-02T21:47:39.675Z,23.18
2017-06-02T21:50:07.207Z,23.22
2017-06-02T21:52:34.747Z,23.20
2017-06-02T21:55:02.307Z,23.20
2017-06-02T21:57:29.829Z,23.26
2017-06-02T21:59:57.450Z,23.23
2017-06-02T22:02:24.984Z,23.30
2017-06-02T22:04:52.634Z,23.29
2017-06-02T22:07:20.185Z,23.31
2017-06-02T22:09:47.856Z,23.26
2017-06-02T22:12:15.502Z,23.14
2017-06-02T22:14:44.348Z,23.04
2017-06-02T22:17:12.059Z,22.97
2017-06-02T22:19:39.676Z,22.95
2017-06-02T22:22:07.240Z,22.94
2017-06-02T22:24:34.801Z,22.88
2017-06-02T22:27:02.483Z,22.87
2017-06-02T22:29:30.059Z,22.96
2017-06-02T22:31:57.580Z,22.91
2017-06-02T22:34:25.156Z,22.57
2017-06-02T22:36:52.675Z,22.57
2017-06-02T22:39:20.563Z,22.49
2017-06-02T22:41:48.091Z,22.73
2017-06-02T22:44:15.642Z,22.93
2017-06-02T22:46:43.240Z,22.96
2017-06-02T22:49:10.795Z,22.95
2017-06-02T22:51:38.440Z,22.93
2017-06-02T22:54:06.120Z,22.93
2017-06-02T22:56:34.087Z,22.94
2017-06-02T22:59:01.636Z,22.99
2017-06-02T23:01:29.155Z,22.94
2017-06-02T23:03:56.706Z,22.84
2017-06-02T23:06:24.229Z,22.67
2017-06-02T23:08:51.797Z,22.66
2017-06-02T23:11:19.380Z,22.51
2017-06-02T23:13:47.139Z,22.60
2017-06-02T23:16:14.669Z,22.65
2017-06-02T23:18:42.234Z,22.61
2017-06-02T23:21:09.780Z,22.44
2017-06-02T23:23:37.533Z,22.48
2017-06-02T23:28:39.055Z,22.47
2017-06-02T23:31:06.605Z,22.46
2017-06-02T23:33:34.144Z,22.58
2017-06-02T23:36:02.155Z,22.59
2017-06-02T23:38:29.711Z,22.54
2017-06-02T23:40:57.272Z,22.52
2017-06-02T23:43:24.811Z,22.59
2017-06-02T23:45:52.367Z,22.58
2017-06-02T23:48:19.911Z,22.55
2017-06-02T23:50:47.465Z,22.57
2017-06-02T23:53:15.012Z,22.67
2017-06-02T23:55:42.597Z,22.60
2017-06-02T23:58:10.128Z,22.56
